Time;durP1;ratioP1;P1;durP2;ratioP2;P2;SDS_P1;SDS_P2;PMS_P1;PMS_P2;Temp;Humidity;BMP_temperature;BMP_pressure;BME280_temperature;BME280_humidity;BME280_pressure;Samples;Min_cycle;Max_cycle;Signal;HPM_P1;HPM_P2
2022/06/17 00:01:38;;;;;;;11.38;3.30;;;22.30;96.70;;;;;;5095810;28;20077;-69
2022/06/17 00:04:03;;;;;;;7.80;3.55;;;22.20;96.60;;;;;;5093102;28;20361;-69
2022/06/17 00:06:35;;;;;;;4.40;3.05;;;22.20;96.40;;;;;;5095441;28;20161;-69
2022/06/17 00:09:01;;;;;;;11.52;3.28;;;21.90;96.40;;;;;;5094299;28;20069;-70
2022/06/17 00:11:37;;;;;;;10.60;3.50;;;21.90;97.20;;;;;;5095696;28;20050;-68
2022/06/17 00:14:11;;;;;;;11.85;3.60;;;22.30;96.40;;;;;;5094655;28;20024;-69
2022/06/17 00:16:36;;;;;;;6.07;3.80;;;22.30;95.90;;;;;;5095443;28;20028;-68
2022/06/17 00:19:02;;;;;;;11.82;3.42;;;22.10;96.40;;;;;;5095122;28;20517;-68
2022/06/17 00:21:33;;;;;;;6.57;3.63;;;22.00;96.60;;;;;;5095407;28;20039;-67
2022/06/17 00:24:01;;;;;;;7.70;3.45;;;21.90;96.80;;;;;;5095097;28;20094;-68
2022/06/17 00:26:27;;;;;;;6.30;3.08;;;21.90;96.60;;;;;;5095341;28;20031;-69
2022/06/17 00:28:52;;;;;;;8.70;3.97;;;21.60;97.30;;;;;;5083917;28;20036;-69
2022/06/17 00:31:19;;;;;;;9.68;3.38;;;21.80;97.10;;;;;;5090655;28;20788;-69
2022/06/17 00:33:45;;;;;;;6.20;3.20;;;21.80;96.60;;;;;;5094998;28;20035;-69
2022/06/17 00:36:16;;;;;;;20.42;3.67;;;21.60;96.10;;;;;;5095080;28;20036;-68
2022/06/17 00:38:45;;;;;;;10.63;2.90;;;21.70;95.70;;;;;;5094863;28;20032;-69
2022/06/17 00:41:26;;;;;;;11.00;4.60;;;21.70;95.70;;;;;;5094855;28;20118;-69
2022/06/17 00:43:52;;;;;;;17.95;4.95;;;21.80;95.40;;;;;;5070952;28;20045;-69
2022/06/17 00:46:43;;;;;;;14.65;3.65;;;21.80;95.10;;;;;;5090399;28;20362;-69
2022/06/17 00:49:24;;;;;;;17.33;4.25;;;21.70;95.20;;;;;;5094655;28;20024;-69
2022/06/17 00:52:05;;;;;;;12.38;4.05;;;21.60;95.70;;;;;;5093512;28;20161;-70
2022/06/17 00:54:41;;;;;;;15.20;3.80;;;21.50;95.80;;;;;;5094603;28;20027;-67
2022/06/17 00:57:21;;;;;;;7.55;3.80;;;21.50;96.60;;;;;;5094062;28;20043;-67
2022/06/17 01:00:21;;;;;;;11.15;3.50;;;21.40;97.00;;;;;;5094616;28;20020;-70
2022/06/17 01:03:02;;;;;;;21.65;4.10;;;21.40;97.00;;;;;;5021706;28;20095;-69
2022/06/17 01:06:05;;;;;;;13.13;4.75;;;21.40;97.20;;;;;;5090131;28;20028;-69
2022/06/17 01:11:29;;;;;;;12.43;4.18;;;21.00;98.50;;;;;;5092560;28;20036;-68
2022/06/17 01:13:55;;;;;;;18.90;4.50;;;21.00;98.70;;;;;;5092834;28;20107;-68
2022/06/17 01:16:41;;;;;;;8.32;4.50;;;21.10;98.30;;;;;;5093073;28;20059;-69
2022/06/17 01:19:33;;;;;;;5.93;4.28;;;21.00;98.10;;;;;;5092642;28;20020;-70
2022/06/17 01:22:39;;;;;;;14.15;4.38;;;20.90;97.50;;;;;;5092918;28;20027;-69
2022/06/17 01:25:09;;;;;;;11.30;4.75;;;20.90;97.50;;;;;;5092866;28;20063;-68
2022/06/17 01:27:39;;;;;;;11.93;3.97;;;20.60;98.60;;;;;;5092694;28;20103;-68
2022/06/17 01:30:08;;;;;;;13.88;3.95;;;20.50;99.00;;;;;;5080541;28;20464;-67
2022/06/17 01:32:40;;;;;;;9.40;3.90;;;20.40;98.90;;;;;;5093852;28;20028;-69
2022/06/17 01:35:08;;;;;;;8.95;3.70;;;20.40;98.90;;;;;;5092527;28;20036;-68
2022/06/17 01:37:34;;;;;;;16.98;4.93;;;20.40;98.80;;;;;;5093040;28;20460;-67
2022/06/17 01:40:01;;;;;;;10.68;3.90;;;20.50;98.40;;;;;;5092563;28;20120;-68
2022/06/17 01:42:28;;;;;;;12.02;4.18;;;20.40;98.60;;;;;;5093661;28;20027;-67
2022/06/17 01:44:55;;;;;;;11.52;3.58;;;20.50;98.60;;;;;;5075344;28;20028;-67
2022/06/17 01:47:25;;;;;;;10.95;4.55;;;20.50;98.60;;;;;;5089260;28;20024;-69
2022/06/17 01:49:55;;;;;;;5.22;3.17;;;20.30;98.40;;;;;;5092226;28;20034;-68
2022/06/17 01:52:34;;;;;;;8.47;3.83;;;20.40;98.60;;;;;;5092540;28;20036;-69
2022/06/17 01:55:10;;;;;;;10.38;3.60;;;20.20;98.90;;;;;;5091667;28;20050;-69
2022/06/17 01:57:52;;;;;;;11.18;3.38;;;20.20;99.30;;;;;;5075181;28;20036;-68
2022/06/17 02:00:24;;;;;;;16.35;3.80;;;20.20;99.90;;;;;;5092037;28;20369;-67
2022/06/17 02:02:57;;;;;;;12.85;3.42;;;20.30;99.40;;;;;;5092237;28;20081;-68
2022/06/17 02:05:24;;;;;;;10.85;3.08;;;20.30;99.90;;;;;;5089391;28;20028;-69
2022/06/17 02:07:57;;;;;;;7.03;3.85;;;20.50;99.90;;;;;;5093125;28;20028;-67
2022/06/17 02:10:29;;;;;;;13.48;3.75;;;20.60;99.60;;;;;;5091612;28;20030;-69
2022/06/17 02:12:56;;;;;;;10.25;3.55;;;20.60;99.70;;;;;;5074942;28;20070;-68
2022/06/17 02:15:23;;;;;;;10.02;3.95;;;20.70;99.60;;;;;;5092515;28;20024;-69
2022/06/17 02:18:00;;;;;;;12.80;4.03;;;20.60;99.90;;;;;;5093328;28;20123;-70
2022/06/17 02:20:41;;;;;;;13.75;4.55;;;20.60;99.90;;;;;;5091270;28;20401;-70
2022/06/17 02:23:07;;;;;;;13.43;4.50;;;20.60;99.70;;;;;;5091880;28;20052;-70
2022/06/17 02:25:42;;;;;;;10.82;4.35;;;20.70;99.50;;;;;;5091494;28;20035;-69
2022/06/17 02:28:11;;;;;;;12.43;3.75;;;20.80;99.20;;;;;;5086751;28;20115;-68
2022/06/17 02:30:39;;;;;;;12.85;3.88;;;20.70;99.40;;;;;;5082739;28;20499;-69
2022/06/17 02:33:06;;;;;;;8.82;3.33;;;20.60;99.40;;;;;;5091466;28;20468;-69
2022/06/17 02:35:38;;;;;;;12.75;3.42;;;20.60;99.00;;;;;;5093197;28;20032;-67
2022/06/17 02:38:05;;;;;;;8.35;3.50;;;20.50;98.80;;;;;;5091340;28;20107;-67
2022/06/17 02:40:39;;;;;;;7.60;3.63;;;20.10;99.50;;;;;;5092796;28;20388;-69
2022/06/17 02:43:11;;;;;;;8.23;4.10;;;20.00;99.90;;;;;;5091414;28;20077;-70
2022/06/17 02:45:43;;;;;;;9.52;3.78;;;20.00;99.90;;;;;;5091683;28;20040;-68
2022/06/17 02:48:28;;;;;;;14.80;4.65;;;20.10;99.80;;;;;;5088274;28;20073;-67
2022/06/17 02:50:58;;;;;;;8.98;3.78;;;19.90;99.90;;;;;;5091601;28;20039;-69
2022/06/17 02:53:34;;;;;;;11.57;4.00;;;19.80;99.90;;;;;;5090970;28;20392;-67
2022/06/17 02:56:09;;;;;;;8.00;3.28;;;19.90;99.90;;;;;;5091905;28;20089;-69
2022/06/17 02:58:51;;;;;;;8.68;3.88;;;20.00;99.90;;;;;;5088888;28;20466;-67
2022/06/17 03:01:23;;;;;;;13.30;3.50;;;20.20;99.70;;;;;;5069660;28;20032;-69
2022/06/17 03:03:58;;;;;;;10.93;3.45;;;20.40;99.50;;;;;;5070983;28;20013;-67
2022/06/17 03:06:35;;;;;;;8.80;3.20;;;20.30;99.10;;;;;;5072536;28;20036;-69
2022/06/17 03:09:17;;;;;;;9.27;3.72;;;20.30;99.40;;;;;;5071885;28;20052;-69
2022/06/17 03:11:48;;;;;;;11.95;4.15;;;20.30;99.40;;;;;;5071357;28;20115;-69
2022/06/17 03:14:14;;;;;;;10.95;4.40;;;20.40;99.00;;;;;;5071026;28;20077;-67
2022/06/17 03:16:42;;;;;;;15.52;4.00;;;20.30;99.60;;;;;;5071000;28;20029;-67
2022/06/17 03:19:11;;;;;;;17.45;4.18;;;20.10;99.80;;;;;;5071234;28;20025;-69
2022/06/17 03:21:37;;;;;;;7.53;3.78;;;20.10;99.90;;;;;;5071119;28;20377;-67
2022/06/17 03:24:27;;;;;;;12.73;4.25;;;20.00;99.90;;;;;;5072022;28;20020;-69
2022/06/17 03:27:04;;;;;;;12.43;4.78;;;20.10;99.90;;;;;;5071035;28;20430;-71
2022/06/17 03:29:32;;;;;;;10.85;4.32;;;20.20;99.90;;;;;;5070963;28;20384;-72
2022/06/17 03:32:03;;;;;;;11.05;4.22;;;20.00;99.90;;;;;;5075393;28;20017;-69
2022/06/17 03:34:42;;;;;;;10.32;4.25;;;20.10;99.90;;;;;;5074437;28;20036;-69
2022/06/17 03:37:13;;;;;;;10.95;4.63;;;20.00;99.90;;;;;;5074243;28;20065;-71
2022/06/17 03:40:06;;;;;;;15.57;4.87;;;20.00;99.90;;;;;;5074647;28;20119;-69
2022/06/17 03:43:12;;;;;;;10.00;4.13;;;20.10;99.90;;;;;;5074598;28;20045;-67
2022/06/17 03:45:47;;;;;;;10.07;4.55;;;20.00;99.90;;;;;;5060308;28;20024;-69
2022/06/17 03:48:16;;;;;;;13.75;3.53;;;20.00;99.90;;;;;;5068098;28;20020;-67
2022/06/17 03:50:47;;;;;;;12.40;3.80;;;19.90;99.90;;;;;;5075591;28;20369;-69
2022/06/17 03:53:26;;;;;;;8.75;3.50;;;19.90;99.90;;;;;;5073964;28;20112;-67
2022/06/17 03:55:56;;;;;;;12.95;3.30;;;19.90;99.90;;;;;;5074171;28;20098;-69
2022/06/17 03:58:24;;;;;;;9.10;2.88;;;20.00;99.90;;;;;;5074144;28;20055;-69
2022/06/17 04:01:02;;;;;;;7.95;3.13;;;19.80;99.90;;;;;;5074459;28;20029;-69
2022/06/17 04:03:33;;;;;;;6.97;3.50;;;19.70;99.90;;;;;;5074103;28;20128;-67
2022/06/17 04:06:08;;;;;;;10.18;2.97;;;19.60;99.90;;;;;;5090634;28;20020;-68
2022/06/17 04:08:50;;;;;;;9.63;3.38;;;19.70;99.90;;;;;;5073813;28;20024;-68
2022/06/17 04:11:17;;;;;;;10.57;3.10;;;19.70;99.90;;;;;;5090889;28;20065;-69
2022/06/17 04:13:43;;;;;;;9.73;3.20;;;19.80;99.90;;;;;;5073784;28;20058;-67
2022/06/17 04:16:27;;;;;;;11.68;3.20;;;20.00;99.90;;;;;;5075195;28;20036;-69
2022/06/17 04:19:02;;;;;;;14.05;3.95;;;20.10;99.90;;;;;;5073640;28;20031;-70
2022/06/17 04:21:27;;;;;;;19.92;4.45;;;20.30;99.90;;;;;;5073420;28;20044;-70
2022/06/17 04:23:54;;;;;;;13.50;4.60;;;20.20;99.90;;;;;;5075077;28;20063;-69
2022/06/17 04:26:40;;;;;;;11.88;3.63;;;20.30;99.90;;;;;;5074031;28;20031;-67
2022/06/17 04:29:40;;;;;;;12.68;3.55;;;20.20;99.90;;;;;;5073400;28;20032;-67
2022/06/17 04:32:16;;;;;;;16.23;3.50;;;20.40;99.90;;;;;;5071493;28;20060;-69
2022/06/17 04:34:42;;;;;;;10.50;3.15;;;20.30;99.90;;;;;;5073073;28;20040;-67
2022/06/17 04:37:20;;;;;;;12.25;3.53;;;20.20;99.90;;;;;;5073589;28;20111;-69
2022/06/17 04:40:30;;;;;;;13.43;4.22;;;20.20;99.90;;;;;;5073153;28;20024;-68
2022/06/17 04:43:33;;;;;;;14.35;3.90;;;20.30;99.90;;;;;;5072546;28;20041;-69
2022/06/17 04:46:10;;;;;;;12.80;4.20;;;20.30;99.90;;;;;;5064986;28;20040;-68
2022/06/17 04:48:39;;;;;;;14.77;4.82;;;20.30;99.90;;;;;;5072403;28;20054;-68
2022/06/17 04:51:06;;;;;;;10.98;4.25;;;20.20;99.90;;;;;;5056863;28;20032;-67
2022/06/17 04:53:33;;;;;;;14.32;3.78;;;20.30;99.90;;;;;;5074305;28;20021;-70
2022/06/17 04:56:36;;;;;;;14.00;4.47;;;20.20;99.90;;;;;;5035037;28;20069;-68
2022/06/17 04:59:31;;;;;;;10.38;3.63;;;20.30;99.90;;;;;;5061910;28;20384;-67
2022/06/17 05:01:58;;;;;;;13.65;4.22;;;20.00;99.90;;;;;;5072943;28;20469;-68
2022/06/17 05:04:49;;;;;;;10.70;4.13;;;20.10;99.90;;;;;;5073679;28;20024;-68
2022/06/17 05:07:16;;;;;;;9.18;3.78;;;20.20;99.90;;;;;;5072602;28;20025;-69
2022/06/17 05:09:50;;;;;;;12.98;4.22;;;20.20;99.90;;;;;;5072813;28;20015;-68
2022/06/17 05:12:28;;;;;;;18.42;3.75;;;20.10;99.90;;;;;;5072777;28;20039;-69
2022/06/17 05:15:00;;;;;;;8.70;4.20;;;20.00;99.90;;;;;;5072536;28;20031;-67
2022/06/17 05:17:26;;;;;;;14.93;4.45;;;20.00;99.90;;;;;;5072928;28;20115;-71
2022/06/17 05:19:53;;;;;;;13.73;4.07;;;20.00;99.90;;;;;;5072322;28;20025;-71
2022/06/17 05:22:27;;;;;;;11.60;4.63;;;20.10;99.90;;;;;;5072683;28;20035;-68
2022/06/17 05:24:54;;;;;;;11.00;4.18;;;20.20;99.90;;;;;;5072453;28;20031;-68
2022/06/17 05:27:19;;;;;;;16.38;3.80;;;20.30;99.90;;;;;;5072521;28;20047;-68
2022/06/17 05:29:45;;;;;;;16.50;3.90;;;20.40;99.90;;;;;;5073587;28;20543;-67
2022/06/17 05:32:15;;;;;;;18.10;4.05;;;20.60;99.90;;;;;;5063520;28;20460;-68
2022/06/17 05:34:42;;;;;;;15.95;4.18;;;20.70;99.90;;;;;;5067889;28;20032;-69
2022/06/17 05:37:09;;;;;;;15.85;4.03;;;20.60;99.90;;;;;;5071240;28;20024;-66
2022/06/17 05:39:37;;;;;;;14.02;4.13;;;20.40;99.90;;;;;;5071630;28;20016;-70
2022/06/17 05:42:05;;;;;;;11.10;4.10;;;20.50;99.90;;;;;;5069707;28;20035;-67
2022/06/17 05:44:32;;;;;;;13.23;4.07;;;20.30;99.90;;;;;;5071739;28;20016;-66
2022/06/17 05:47:12;;;;;;;14.47;4.00;;;20.30;99.90;;;;;;5070732;28;20032;-77
2022/06/17 05:49:55;;;;;;;9.55;3.95;;;20.30;99.90;;;;;;5065144;28;20027;-65
2022/06/17 05:52:55;;;;;;;13.65;4.65;;;20.40;99.90;;;;;;5072280;28;20043;-65
2022/06/17 05:55:38;;;;;;;21.40;4.75;;;20.60;99.90;;;;;;5067528;28;20431;-65
2022/06/17 05:58:05;;;;;;;13.75;5.05;;;20.70;99.90;;;;;;5070641;28;20029;-65
2022/06/17 06:00:33;;;;;;;11.45;4.05;;;20.60;99.90;;;;;;5052931;28;20469;-65
2022/06/17 06:03:03;;;;;;;11.23;4.07;;;20.40;99.90;;;;;;5086116;28;20028;-65
2022/06/17 06:05:34;;;;;;;17.85;4.22;;;20.50;99.90;;;;;;5082264;28;20023;-71
2022/06/17 06:08:05;;;;;;;17.10;4.18;;;20.50;99.90;;;;;;5070359;28;20511;-64
2022/06/17 06:10:30;;;;;;;13.57;4.13;;;20.40;99.90;;;;;;5071049;28;20025;-65
2022/06/17 06:12:57;;;;;;;11.02;4.55;;;20.40;99.90;;;;;;5068454;28;20032;-65
2022/06/17 06:15:33;;;;;;;19.52;4.68;;;20.50;99.90;;;;;;5055420;28;20497;-65
2022/06/17 06:18:31;;;;;;;19.38;3.65;;;20.60;99.90;;;;;;5058278;28;20366;-66
2022/06/17 06:21:00;;;;;;;16.92;3.58;;;20.60;99.90;;;;;;5068419;28;20432;-66
2022/06/17 06:23:27;;;;;;;15.95;3.85;;;20.70;99.90;;;;;;5063610;28;20078;-67
2022/06/17 06:25:54;;;;;;;9.15;3.50;;;20.60;99.90;;;;;;5053834;28;20033;-67
2022/06/17 06:28:22;;;;;;;16.80;4.40;;;20.70;99.90;;;;;;5063010;28;20547;-65
2022/06/17 06:31:00;;;;;;;8.07;3.60;;;20.90;99.90;;;;;;5061572;28;20059;-78
2022/06/17 06:33:26;;;;;;;16.20;3.53;;;21.00;99.90;;;;;;5070659;28;20024;-65
2022/06/17 06:35:52;;;;;;;19.52;4.25;;;21.00;99.90;;;;;;5069743;28;20101;-65
2022/06/17 06:38:18;;;;;;;9.00;3.70;;;21.10;99.90;;;;;;5071881;28;20027;-67
2022/06/17 06:40:47;;;;;;;12.23;3.63;;;21.30;99.90;;;;;;5069531;28;20024;-65
2022/06/17 06:43:19;;;;;;;10.80;3.35;;;21.50;99.90;;;;;;5069877;28;20037;-65
2022/06/17 06:46:12;;;;;;;8.73;3.58;;;21.50;99.90;;;;;;5071451;28;20101;-77
2022/06/17 06:48:46;;;;;;;8.20;3.60;;;21.60;99.90;;;;;;5068717;28;20447;-65
2022/06/17 06:51:12;;;;;;;11.73;3.33;;;21.80;99.90;;;;;;5070366;28;20032;-65
2022/06/17 06:53:38;;;;;;;13.65;3.90;;;21.80;99.40;;;;;;5070101;28;20020;-65
2022/06/17 06:56:05;;;;;;;16.77;4.00;;;21.80;99.30;;;;;;5070147;28;20033;-73
2022/06/17 06:58:31;;;;;;;15.98;3.42;;;21.90;99.00;;;;;;5069365;28;20030;-72
2022/06/17 07:00:58;;;;;;;8.07;3.42;;;21.80;99.40;;;;;;5070766;28;20035;-65
2022/06/17 07:03:28;;;;;;;9.43;3.67;;;22.00;98.40;;;;;;5070902;28;20381;-65
2022/06/17 07:06:03;;;;;;;10.40;3.25;;;22.10;98.50;;;;;;5063594;28;20021;-66
2022/06/17 07:08:32;;;;;;;12.07;3.22;;;22.10;98.40;;;;;;5082613;28;20040;-67
2022/06/17 07:10:59;;;;;;;12.40;3.33;;;22.30;98.30;;;;;;5075447;28;20033;-67
2022/06/17 07:13:26;;;;;;;6.88;3.15;;;22.40;98.50;;;;;;5073836;28;20416;-65
2022/06/17 07:15:56;;;;;;;8.93;3.13;;;22.40;97.50;;;;;;5074929;28;20032;-66
2022/06/17 07:18:29;;;;;;;9.77;3.30;;;22.40;97.70;;;;;;5075026;28;20021;-67
2022/06/17 07:20:58;;;;;;;13.30;3.40;;;22.30;97.40;;;;;;5074454;28;20044;-66
2022/06/17 07:23:32;;;;;;;10.68;3.53;;;22.40;97.50;;;;;;5075835;28;20023;-76
2022/06/17 07:26:00;;;;;;;11.75;3.28;;;22.30;97.80;;;;;;5076930;28;20036;-66
2022/06/17 07:28:26;;;;;;;9.98;3.33;;;22.50;98.00;;;;;;5074977;28;20029;-67
2022/06/17 07:30:54;;;;;;;8.55;3.22;;;22.80;98.10;;;;;;5076227;28;20024;-66
2022/06/17 07:33:23;;;;;;;6.68;3.25;;;23.00;97.10;;;;;;5076193;28;20043;-77
2022/06/17 07:35:50;;;;;;;6.03;3.42;;;23.00;97.10;;;;;;5075035;28;20477;-66
2022/06/17 07:41:06;;;;;;;7.22;2.67;;;23.10;96.00;;;;;;5067757;28;20029;-66
2022/06/17 07:43:32;;;;;;;9.85;3.42;;;23.30;96.40;;;;;;5073662;28;20060;-75
2022/06/17 07:46:00;;;;;;;19.67;4.72;;;23.50;96.50;;;;;;5075383;28;20044;-68
2022/06/17 07:48:26;;;;;;;9.52;3.10;;;23.50;96.10;;;;;;5074082;28;20066;-67
2022/06/17 07:50:53;;;;;;;11.50;3.53;;;23.50;95.80;;;;;;5073399;28;20024;-68
2022/06/17 07:53:18;;;;;;;10.32;3.10;;;23.50;95.70;;;;;;5075259;28;20023;-70
2022/06/17 07:55:45;;;;;;;8.13;2.65;;;23.90;95.20;;;;;;5074011;28;20036;-67
2022/06/17 07:58:12;;;;;;;12.48;3.10;;;24.00;94.80;;;;;;5074866;28;20027;-68
2022/06/17 08:00:44;;;;;;;12.95;2.63;;;23.90;95.50;;;;;;5075122;28;20077;-67
2022/06/17 08:03:11;;;;;;;9.75;3.13;;;23.90;95.60;;;;;;5075250;28;20093;-69
2022/06/17 08:05:40;;;;;;;11.10;3.17;;;24.10;94.90;;;;;;5074994;28;20035;-70
2022/06/17 08:08:08;;;;;;;10.27;3.00;;;24.20;95.40;;;;;;5075339;28;20017;-69
2022/06/17 08:10:35;;;;;;;10.82;2.53;;;24.10;94.60;;;;;;5074837;28;20385;-67
2022/06/17 08:13:03;;;;;;;5.50;2.55;;;24.40;95.10;;;;;;5074477;28;20021;-67
2022/06/17 08:15:29;;;;;;;7.28;2.25;;;24.70;93.70;;;;;;5075308;28;20032;-70
2022/06/17 08:17:56;;;;;;;9.55;2.80;;;24.70;93.30;;;;;;5073927;28;20020;-70
2022/06/17 08:20:26;;;;;;;8.48;2.83;;;24.70;93.40;;;;;;5074913;28;20061;-68
2022/06/17 08:22:52;;;;;;;6.97;2.53;;;24.80;93.50;;;;;;5075008;28;20428;-70
2022/06/17 08:25:18;;;;;;;9.50;2.22;;;24.80;93.00;;;;;;5074898;28;20024;-67
2022/06/17 08:27:47;;;;;;;9.95;2.15;;;24.70;92.50;;;;;;5074608;28;20427;-70
2022/06/17 08:30:14;;;;;;;11.93;2.30;;;24.70;92.80;;;;;;5074786;28;20025;-68
2022/06/17 08:32:46;;;;;;;5.88;2.45;;;24.70;92.20;;;;;;5073858;28;20033;-68
2022/06/17 08:35:18;;;;;;;4.53;2.17;;;24.60;93.10;;;;;;5061062;28;20090;-68
2022/06/17 08:37:45;;;;;;;12.98;2.67;;;24.80;92.70;;;;;;5074672;28;20058;-70
2022/06/17 08:40:36;;;;;;;11.00;2.40;;;24.90;92.30;;;;;;5074471;28;20040;-68
2022/06/17 08:43:23;;;;;;;7.65;2.90;;;25.10;92.00;;;;;;5074343;28;20028;-71
2022/06/17 08:46:17;;;;;;;6.88;2.30;;;25.30;91.50;;;;;;5074302;28;20036;-70
2022/06/17 08:48:57;;;;;;;13.30;2.53;;;24.90;92.00;;;;;;5073832;28;20472;-69
2022/06/17 08:51:48;;;;;;;8.82;2.45;;;25.00;92.40;;;;;;5085046;28;20029;-69
2022/06/17 08:54:44;;;;;;;5.53;2.50;;;25.20;91.90;;;;;;5088460;28;20384;-70
2022/06/17 08:57:16;;;;;;;6.03;2.28;;;25.40;91.20;;;;;;5074863;28;20043;-70
2022/06/17 08:59:44;;;;;;;9.00;2.50;;;25.80;91.30;;;;;;5066787;28;20017;-70
2022/06/17 09:02:19;;;;;;;16.52;2.58;;;25.90;91.10;;;;;;5072685;28;20089;-70
2022/06/17 09:05:12;;;;;;;7.10;2.40;;;26.00;90.00;;;;;;5071858;28;20025;-68
2022/06/17 09:10:33;;;;;;;9.02;2.58;;;25.40;89.60;;;;;;5081377;28;20039;-70
2022/06/17 09:13:05;;;;;;;9.75;2.28;;;25.70;90.40;;;;;;5077130;28;20035;-69
2022/06/17 09:15:49;;;;;;;6.22;2.10;;;26.00;88.40;;;;;;5073955;28;20037;-70
2022/06/17 09:18:36;;;;;;;13.52;2.92;;;26.30;88.30;;;;;;5087035;28;20506;-71
2022/06/17 09:21:06;;;;;;;7.80;2.33;;;26.20;89.60;;;;;;5084798;28;20034;-68
2022/06/17 09:23:37;;;;;;;7.95;2.70;;;26.30;88.30;;;;;;5078254;28;20100;-71
2022/06/17 09:26:06;;;;;;;9.90;2.50;;;26.60;88.30;;;;;;5056073;28;20033;-68
2022/06/17 09:28:45;;;;;;;12.80;2.63;;;26.20;87.20;;;;;;5077696;28;20464;-71
2022/06/17 09:31:35;;;;;;;13.55;2.88;;;26.50;87.30;;;;;;5082926;28;20028;-69
2022/06/17 09:34:31;;;;;;;4.28;2.20;;;26.60;87.60;;;;;;5080846;28;20032;-71
2022/06/17 09:37:12;;;;;;;13.23;2.60;;;26.60;86.60;;;;;;5063710;28;20151;-70
2022/06/17 09:39:44;;;;;;;7.70;2.63;;;26.50;83.90;;;;;;5068004;28;20032;-68
2022/06/17 09:42:35;;;;;;;5.53;2.53;;;26.60;86.50;;;;;;5081239;28;20436;-70
2022/06/17 09:45:07;;;;;;;12.17;2.33;;;26.60;85.80;;;;;;5081232;28;20024;-70
2022/06/17 09:47:41;;;;;;;7.40;2.72;;;27.00;85.90;;;;;;5072886;28;20468;-69
2022/06/17 09:50:14;;;;;;;5.57;2.08;;;27.10;85.40;;;;;;5075537;28;20043;-69
2022/06/17 09:52:52;;;;;;;7.00;1.92;;;27.00;84.10;;;;;;5088789;28;20031;-71
2022/06/17 09:55:30;;;;;;;11.93;1.77;;;26.90;85.10;;;;;;5064240;28;20036;-70
2022/06/17 09:58:11;;;;;;;10.23;2.30;;;26.90;82.60;;;;;;5085367;28;20028;-71
2022/06/17 10:00:43;;;;;;;12.27;2.47;;;27.00;83.00;;;;;;5072725;28;20393;-71
2022/06/17 10:03:15;;;;;;;12.73;3.00;;;27.00;83.80;;;;;;5068954;28;20025;-69
2022/06/17 10:06:19;;;;;;;8.57;1.67;;;27.00;83.30;;;;;;5074210;28;20032;-71
2022/06/17 10:08:48;;;;;;;9.55;2.42;;;27.00;80.50;;;;;;5079123;28;20541;-69
2022/06/17 10:11:41;;;;;;;5.88;2.28;;;27.10;82.80;;;;;;5078743;28;20052;-66
2022/06/17 10:14:35;;;;;;;14.85;2.20;;;27.40;82.70;;;;;;5076882;28;20107;-69
2022/06/17 10:20:22;;;;;;;9.13;2.28;;;27.80;82.40;;;;;;5080961;28;20066;-71
2022/06/17 10:23:24;;;;;;;6.90;2.45;;;27.90;83.00;;;;;;5080762;28;20512;-70
2022/06/17 10:25:50;;;;;;;;;;;27.90;83.20;;;;;;5075348;28;20029;-71
2022/06/17 10:28:37;;;;;;;9.20;1.65;;;27.80;81.30;;;;;;5078144;28;19908;-70
2022/06/17 10:31:14;;;;;;;6.95;1.85;;;28.00;81.10;;;;;;5082657;28;20024;-69
2022/06/17 10:33:41;;;;;;;10.15;2.22;;;28.00;82.40;;;;;;5075507;28;20071;-69
2022/06/17 10:36:07;;;;;;;10.32;2.50;;;27.90;81.80;;;;;;5074635;28;20545;-71
2022/06/17 10:38:43;;;;;;;6.85;1.85;;;28.10;81.30;;;;;;5066014;28;20036;-69
2022/06/17 10:41:10;;;;;;;12.50;2.55;;;28.30;81.20;;;;;;5082289;28;20380;-71
2022/06/17 10:43:43;;;;;;;5.97;1.73;;;28.20;79.50;;;;;;5077094;28;20021;-70
2022/06/17 10:46:32;;;;;;;9.18;1.90;;;28.20;79.60;;;;;;5074632;28;20029;-69
2022/06/17 10:49:22;;;;;;;13.07;1.60;;;28.50;81.10;;;;;;5063684;28;20464;-69
2022/06/17 10:51:53;;;;;;;8.18;2.20;;;28.10;80.50;;;;;;5078119;28;20111;-70
2022/06/17 10:54:31;;;;;;;10.02;2.08;;;28.00;80.30;;;;;;5082031;28;20024;-69
2022/06/17 10:57:24;;;;;;;6.53;1.70;;;27.90;79.80;;;;;;5082075;28;20036;-69
2022/06/17 10:59:50;;;;;;;7.63;2.05;;;28.30;78.40;;;;;;5087664;28;20357;-71
2022/06/17 11:02:22;;;;;;;4.80;1.83;;;28.50;80.40;;;;;;5087911;28;20046;-69
2022/06/17 11:04:57;;;;;;;6.53;1.70;;;28.80;78.40;;;;;;5074865;28;20021;-70
2022/06/17 11:07:50;;;;;;;12.15;2.53;;;28.90;79.30;;;;;;5070038;28;20020;-69
2022/06/17 11:10:15;;;;;;;5.97;1.98;;;29.00;76.20;;;;;;5066622;28;20048;-68
2022/06/17 11:12:55;;;;;;;5.40;1.60;;;28.60;76.20;;;;;;5072163;28;20107;-70
2022/06/17 11:15:28;;;;;;;13.35;2.08;;;28.80;77.40;;;;;;5072566;28;20098;-68
2022/06/17 11:17:58;;;;;;;9.90;1.52;;;29.10;78.00;;;;;;5072028;28;20027;-70
2022/06/17 11:20:29;;;;;;;4.35;1.67;;;29.20;77.10;;;;;;5054775;28;20062;-70
2022/06/17 11:23:07;;;;;;;7.97;1.92;;;29.20;75.70;;;;;;5072082;28;20103;-69
2022/06/17 11:25:34;;;;;;;5.32;1.67;;;28.90;76.50;;;;;;5063493;28;20024;-70
2022/06/17 11:28:20;;;;;;;5.97;1.88;;;29.10;78.50;;;;;;5071991;28;20032;-69
2022/06/17 11:30:58;;;;;;;6.43;2.03;;;28.90;79.20;;;;;;5072164;28;20083;-69
2022/06/17 11:33:34;;;;;;;7.68;1.60;;;28.70;77.10;;;;;;5072078;28;20099;-70
2022/06/17 11:36:18;;;;;;;4.53;1.50;;;28.70;76.80;;;;;;5071862;28;20072;-68
2022/06/17 11:38:44;;;;;;;12.82;1.77;;;28.70;77.50;;;;;;5071867;28;20024;-70
2022/06/17 11:41:17;;;;;;;2.45;1.48;;;28.90;77.70;;;;;;5071996;28;20032;-69
2022/06/17 11:43:43;;;;;;;3.10;1.58;;;29.10;77.60;;;;;;5072084;28;20032;-69
2022/06/17 11:46:18;;;;;;;4.07;1.63;;;29.50;77.70;;;;;;5070351;28;20082;-69
2022/06/17 11:48:55;;;;;;;6.45;1.95;;;29.20;76.50;;;;;;5071534;28;20020;-69
2022/06/17 11:51:50;;;;;;;7.07;1.95;;;29.30;77.00;;;;;;5072711;28;20032;-69
2022/06/17 11:54:24;;;;;;;9.90;1.60;;;29.80;77.40;;;;;;5067284;28;20397;-71
2022/06/17 11:56:52;;;;;;;9.77;1.63;;;30.10;75.70;;;;;;5075213;28;20101;-69
2022/06/17 11:59:25;;;;;;;7.25;1.60;;;30.00;75.70;;;;;;5075540;28;20028;-69
2022/06/17 12:02:02;;;;;;;5.13;1.63;;;30.00;76.20;;;;;;5075325;28;20071;-70
2022/06/17 12:04:32;;;;;;;10.02;1.60;;;30.30;75.40;;;;;;5075148;28;20028;-68
2022/06/17 12:06:58;;;;;;;9.85;2.05;;;30.40;75.80;;;;;;5074907;28;20028;-70
2022/06/17 12:09:38;;;;;;;9.20;1.85;;;30.20;75.10;;;;;;5074847;28;20086;-69
2022/06/17 12:12:13;;;;;;;4.70;1.60;;;30.40;74.90;;;;;;5075338;28;20427;-70
2022/06/17 12:14:46;;;;;;;8.82;1.70;;;30.30;75.90;;;;;;5075078;28;20378;-70
2022/06/17 12:17:14;;;;;;;9.30;1.88;;;30.10;74.90;;;;;;5075136;28;20040;-70
2022/06/17 12:19:40;;;;;;;11.95;2.03;;;29.70;76.30;;;;;;5074618;28;20040;-70
2022/06/17 12:22:12;;;;;;;8.00;2.47;;;30.10;76.40;;;;;;5075237;28;20028;-70
2022/06/17 12:24:42;;;;;;;10.45;2.05;;;30.00;76.00;;;;;;5074994;28;20028;-69
2022/06/17 12:27:27;;;;;;;9.18;1.67;;;30.30;77.00;;;;;;5074893;28;20032;-69
2022/06/17 12:29:58;;;;;;;9.63;1.70;;;30.30;75.90;;;;;;5074535;28;20100;-70
2022/06/17 12:32:32;;;;;;;4.18;1.90;;;30.30;76.50;;;;;;5074866;28;20116;-70
2022/06/17 12:35:09;;;;;;;11.57;2.08;;;30.40;75.50;;;;;;5074116;28;20032;-69
2022/06/17 12:37:44;;;;;;;6.72;1.42;;;30.20;75.20;;;;;;5056776;28;20044;-71
2022/06/17 12:40:29;;;;;;;3.90;1.65;;;30.40;75.50;;;;;;5074715;28;20063;-68
2022/06/17 12:43:11;;;;;;;6.43;1.85;;;30.30;76.70;;;;;;5074622;28;20032;-69
2022/06/17 12:45:54;;;;;;;6.40;2.60;;;30.70;75.30;;;;;;5074385;28;20059;-70
2022/06/17 12:48:39;;;;;;;9.05;1.90;;;31.10;75.80;;;;;;5070990;28;20111;-70
2022/06/17 12:54:32;;;;;;;4.95;1.70;;;31.20;76.10;;;;;;5074632;28;20032;-70
2022/06/17 12:57:07;;;;;;;5.93;1.90;;;31.70;76.40;;;;;;5074420;28;20042;-70
2022/06/17 13:00:04;;;;;;;7.90;2.22;;;31.50;73.90;;;;;;5056243;28;20528;-71
2022/06/17 13:02:53;;;;;;;8.55;1.60;;;31.20;74.70;;;;;;5073860;28;20024;-71
2022/06/17 13:05:41;;;;;;;8.88;1.70;;;31.80;75.40;;;;;;5089618;28;20467;-68
2022/06/17 13:08:29;;;;;;;4.50;1.65;;;31.20;74.80;;;;;;5073772;28;20020;-69
2022/06/17 13:11:16;;;;;;;8.70;1.88;;;31.30;75.90;;;;;;5074048;28;20499;-68
2022/06/17 13:14:05;;;;;;;6.43;1.50;;;31.60;74.60;;;;;;5074016;28;20112;-69
2022/06/17 13:16:45;;;;;;;9.52;1.25;;;31.60;74.70;;;;;;5074170;28;20072;-69
2022/06/17 13:19:34;;;;;;;17.50;1.92;;;31.50;74.10;;;;;;5073701;28;20032;-70
2022/06/17 13:22:00;;;;;;;10.52;1.67;;;32.00;74.20;;;;;;5073704;28;20496;-69
2022/06/17 13:24:50;;;;;;;10.25;1.88;;;31.70;73.40;;;;;;5073562;28;20045;-70
2022/06/17 13:27:36;;;;;;;6.95;1.60;;;31.60;72.00;;;;;;5073556;28;20077;-69
2022/06/17 13:30:09;;;;;;;14.45;1.80;;;31.50;73.20;;;;;;5073320;28;20119;-71
2022/06/17 13:32:48;;;;;;;10.63;1.60;;;31.80;72.80;;;;;;5074070;28;20138;-70
2022/06/17 13:35:35;;;;;;;12.13;1.85;;;32.00;73.80;;;;;;5073558;28;20048;-70